Aktualne dane pomiarowe

Uwaga, wersja testowa! Automatyczne pobieranie danych za pomocą narzędzi lub skryptów to umożliwiających jest zabronione.

Dane meteo z obszaru Polski uzyskane na podstawie depesz SYNOP pobieranych co godzinę z NWS. Najedź myszką na symbol przedstawiony w tabeli, aby uzyskać informacje co do jego znaczenia. Prosimy pamiętać, że to testowa wersja strony, która jeszcze nie jest ukończona. Stworzono również jest krótki FAQ dotyczący korzystania z tej podstrony Anomalie temperatury w chwili obecnej odniesione są do okresu referencyjnego 1951-2016. Okres ten będzie później zmieniony na 1981-2010. Kliknij ikonę aby pobrać plik CSV. Kliknij ikonę aby wygenerować mapę synoptyczną dla danego terminu.

Wybierz Datę:    

        

Mińsk Mazowiecki (12376)

Dane terminowe dla wybranej stacji. Kliknij datę, aby otrzymać dane z tego terminu dla wszystkich stacji.

TemperaturaZachmurzenieWiatrCiśnienieOpadyPogoda
 Data t td wb tx tn tg rh  Nt Nl Cl Cm Ch ws wd g1 g2 wx mslp ppp ch 24h 12h t ww ww w1 w2  
2019-07-04 23:00:00 9.5 4.7 6.7--- 7210.0wx-wx2wx---1016.1 993.8 -1.3---------
2019-07-04 22:00:00 9.9 4.7 6.9--- 7010.0wx-wx1----1016.5 994.2 -1.1---------
2019-07-04 21:00:00 10.3 5.5 7.4--- 7210.0wx-wx1wx---1017.0 994.7 -0.8---------
2019-07-04 20:00:00 12.4 5.6 8.5--- 6310.0wx-wx1wx---1017.2 995.1 -0.6---------
2019-07-04 19:00:00 15.3 4.1 9.3--- 4710.0wx-wx2wx---1017.2 995.3 -0.8---------
2019-07-04 18:00:00 17.1 3.4 10.0--- 4010.0wx-wxwx3wx---1017.3 995.5 -0.8---------
2019-07-04 17:00:00 18.5 2.8 10.4--- 3510.0wxwxwxwxwx5wx---1017.4 995.7 -1.0---------
2019-07-04 16:00:00 20.1 2.5 11.1--- 3110.0wxwxwxwx6wx-11-1017.7 996.1 -0.9---------
2019-07-04 15:00:00 20.7 2.1 11.2--- 2910.0wxwxwxwx6wx---1017.8 996.3 -1.2---------
2019-07-04 14:00:00 19.7 2.6 10.9--- 3210.0wxwxwxwx6wx---1018.3 996.7 -0.9---------
2019-07-04 13:00:00 19.4 3.2 11.0--- 3410.0wxwxwxwx7wx---1018.6 997.0 -0.7---------
2019-07-04 12:00:00 19.4 4.4 11.4--- 3710.0wxwxwxwx9wx-14-1019.1 997.5 -0.3---------
2019-07-04 11:00:00 18.9 3.9 11.0--- 3710.0wxwxwxwx8wx1414-1019.3 997.6 -0.6---------
2019-07-04 10:00:00 18.2 4.8 11.0--- 4110.0wxwxwxwx7wx---1019.5 997.8 -0.5---------
2019-07-04 09:00:00 17.7 6.0 11.2--- 4610.0wxwxwxwx6wx---1019.5 997.8 -0.5---------
2019-07-04 08:00:00 15.6 6.1 10.3--- 5310.0wxwxwxwx6wx---1020.1 998.2 -0.2---------
2019-07-04 07:00:00 16.2 6.6 10.8--- 5310.0wxwxwxwx6wx---1020.2 998.3 -0.1---------
2019-07-04 06:00:00 15.6 6.1 10.3--- 5310.0wxwxwxwx5wx---1020.2 998.3 0.1---------
2019-07-04 05:00:00 13.1 7.8 9.9--- 7010.0wx-2wx---1020.5 998.4 0.3---------
2019-07-04 04:00:00 10.4 6.7 8.1--- 7810.0wx-2wx---1020.7 998.4 0.3---------
2019-07-04 03:00:00 7.6 5.6 6.3--- 8710.0wx-1wx---1020.8 998.3 0.4---------
2019-07-04 02:00:00 7.2 4.9 5.7--- 8510.0wx-wx1wx---1020.7 998.1 0.2---------
2019-07-04 01:00:00 9.2 4.8 6.6--- 7410.0wx-2wx---1020.5 998.1 0.3---------
2019-07-04 00:00:00 9.6 5.2 7.0--- 7410.0wx-3wx---1020.3 997.9 -0.1---------
2019-07-03 23:00:00 10.4 5.2 7.4--- 7010.0wx-wx3wx---1020.2 997.9 0.6---------
2019-07-03 22:00:00 10.9 6.3 8.1--- 7310.0wx-wx3wx---1020.1 997.8 0.9---------
2019-07-03 21:00:00 12.2 6.3 8.7--- 6710.0wx-wx3wx---1020.2 998.0 1.4---------
2019-07-03 20:00:00 13.1 5.3 8.7--- 5910.0wx-wx2wx---1019.4 997.3 0.5---------
2019-07-03 19:00:00 15.1 4.5 9.4--- 4910.0wx-wx2wx---1018.8 996.9 0.2---------
2019-07-03 18:00:00 16.5 3.9 9.9--- 4310.0wx-wx3wx---1018.4 996.6 -0.2---------
2019-07-03 17:00:00 17.6 3.1 10.1--- 3810.0wx-wx5wx---1018.5 996.8 -0.2---------
2019-07-03 16:00:00 17.6 2.4 9.9--- 3610.0wx-wx5wx---1018.4 996.7 0.0---------
2019-07-03 15:00:00 19.1 3.3 10.9--- 3510.0wxwxwxwx6wx---1018.4 996.8 0.1---------
2019-07-03 14:00:00 17.4 3.3 10.1--- 3910.0wxwxwxwx7wx---1018.8 997.0 0.3---------
2019-07-03 13:00:00 18.5 3.6 10.7--- 3710.0wxwxwxwx7wx---1018.4 996.7 0.3---------
2019-07-03 12:00:00 18.2 4.4 10.9--- 4010.0wxwxwxwx7wx---1018.4 996.7 0.3---------
2019-07-03 11:00:00 17.3 4.3 10.4--- 4210.0wxwxwxwx7wx---1018.5 996.7 0.4---------
2019-07-03 10:00:00 18.3 3.4 10.5--- 3710.0wxwxwxwx6wx---1018.1 996.4 0.4---------
2019-07-03 09:00:00 17.1 3.4 10.0--- 4010.0wxwxwx8wx---1018.2 996.4 0.6---------
2019-07-03 08:00:00 16.5 4.2 10.0--- 4410.0wxwxwx9wx---1018.1 996.3 0.6---------
2019-07-03 07:00:00 15.4 3.9 9.3--- 4610.0wxwxwx8wx---1017.9 996.0 0.4---------
2019-07-03 06:00:00 15.3 6.6 10.3--- 5610.0wxwxwxwx7wx---1017.7 995.8 0.2---------
2019-07-03 05:00:00 13.7 7.3 9.9--- 6510.0wx-wx5wx---1017.7 995.7 0.5---------
2019-07-03 04:00:00 11.8 7.5 9.1--- 7510.0wx-wx4wx---1017.7 995.6 0.7---------
2019-07-03 03:00:00 10.4 6.4 7.9--- 7610.0wx-2wx---1017.8 995.6 0.6---------
2019-07-03 02:00:00 10.7 5.9 7.8--- 7210.0wx-2wx---1017.4 995.2 0.2---------
2019-07-03 01:00:00 9.9 5.5 7.3--- 7410.0wx-3wx---1017.2 994.9 0.2---------
2019-07-03 00:00:00 11.6 6.3 8.4--- 7010.0wx-3wx---1017.1 995.0 0.7---------
1.7 ms

 

Print Friendly, PDF & Email